Time;durP1;ratioP1;P1;durP2;ratioP2;P2;SDS_P1;SDS_P2;PMS_P1;PMS_P2;Temp;Humidity;BMP_temperature;BMP_pressure;BME280_temperature;BME280_humidity;BME280_pressure;Samples;Min_cycle;Max_cycle;Signal;HPM_P1;HPM_P2
2022/08/19 00:01:16;;;;;;;9.98;4.07;;;17.00;99.90;;;;;;4179388;28;20049;-86
2022/08/19 00:03:18;;;;;;;4.95;3.65;;;16.90;99.90;;;;;;4213916;28;20039;-85
2022/08/19 00:05:22;;;;;;;9.90;4.15;;;16.90;99.90;;;;;;4213653;28;20063;-86
2022/08/19 00:07:22;;;;;;;11.07;4.60;;;16.90;99.90;;;;;;4229468;28;20043;-86
2022/08/19 00:09:24;;;;;;;6.10;4.30;;;17.20;99.90;;;;;;4196104;28;20076;-86
2022/08/19 00:11:27;;;;;;;7.57;3.85;;;16.90;99.90;;;;;;4229401;28;20053;-85
2022/08/19 00:13:34;;;;;;;5.97;4.03;;;16.90;99.90;;;;;;4239370;27;20104;-86
2022/08/19 00:15:35;;;;;;;7.07;3.72;;;16.80;99.90;;;;;;4195317;28;20090;-85
2022/08/19 00:17:36;;;;;;;5.63;3.38;;;16.80;99.90;;;;;;4230298;28;20039;-86
2022/08/19 00:19:37;;;;;;;5.10;3.15;;;16.80;99.90;;;;;;4230815;28;20036;-86
2022/08/19 00:21:39;;;;;;;6.68;3.53;;;16.80;99.90;;;;;;4229541;28;20085;-86
2022/08/19 00:23:40;;;;;;;9.63;3.90;;;16.80;99.90;;;;;;4211845;28;20058;-86
2022/08/19 00:25:41;;;;;;;7.32;3.63;;;16.80;99.90;;;;;;4246306;28;20047;-86
2022/08/19 00:27:42;;;;;;;10.73;3.95;;;16.70;99.90;;;;;;4230787;28;20039;-86
2022/08/19 00:29:43;;;;;;;5.20;3.67;;;16.70;99.90;;;;;;4230574;28;20506;-86
2022/08/19 00:31:45;;;;;;;4.97;3.83;;;16.60;99.90;;;;;;4225993;28;20044;-85
2022/08/19 00:33:47;;;;;;;6.05;3.80;;;16.60;99.90;;;;;;4212382;28;20040;-85
2022/08/19 00:35:49;;;;;;;8.27;4.15;;;16.60;99.90;;;;;;4212842;28;20047;-85
2022/08/19 00:37:50;;;;;;;6.35;3.45;;;16.50;99.90;;;;;;4230002;28;20047;-86
2022/08/19 00:39:51;;;;;;;8.68;3.90;;;16.50;99.90;;;;;;4230549;28;20051;-86
2022/08/19 00:41:53;;;;;;;8.63;3.53;;;16.50;99.90;;;;;;4230144;28;20122;-86
2022/08/19 00:44:10;;;;;;;4.78;3.55;;;16.50;99.90;;;;;;4245992;28;20185;-86
2022/08/19 00:46:11;;;;;;;6.82;3.55;;;16.40;99.90;;;;;;4245956;28;20054;-87
2022/08/19 00:48:12;;;;;;;8.43;4.03;;;16.40;99.90;;;;;;4198174;28;20434;-86
2022/08/19 00:50:16;;;;;;;5.68;3.88;;;16.40;99.90;;;;;;4245256;27;20122;-85
2022/08/19 00:52:28;;;;;;;5.40;3.60;;;16.40;99.90;;;;;;4213121;28;20520;-86
2022/08/19 00:54:31;;;;;;;11.23;4.07;;;16.40;99.90;;;;;;4212915;28;20488;-86
2022/08/19 00:56:32;;;;;;;7.30;4.35;;;16.30;99.90;;;;;;4213262;28;20499;-86
2022/08/19 00:58:35;;;;;;;5.75;4.35;;;16.30;99.90;;;;;;4214457;28;20490;-85
2022/08/19 01:00:37;;;;;;;6.55;4.15;;;16.00;99.90;;;;;;4212560;28;20466;-86
2022/08/19 01:02:38;;;;;;;8.43;4.70;;;16.30;99.90;;;;;;4196285;28;20127;-86
2022/08/19 01:04:39;;;;;;;6.88;4.10;;;16.60;99.90;;;;;;4196731;28;20049;-85
2022/08/19 01:06:41;;;;;;;6.10;4.38;;;16.20;99.90;;;;;;4231091;28;20054;-85
2022/08/19 01:08:42;;;;;;;5.10;3.58;;;16.20;99.90;;;;;;4263424;27;20051;-86
2022/08/19 01:10:48;;;;;;;7.60;4.00;;;16.20;99.90;;;;;;4229583;28;20051;-86
2022/08/19 01:12:49;;;;;;;8.20;3.88;;;16.10;99.90;;;;;;4246544;28;20044;-85
2022/08/19 01:14:52;;;;;;;10.07;4.60;;;16.10;99.90;;;;;;4231053;28;20144;-84
2022/08/19 01:16:56;;;;;;;8.77;5.35;;;16.10;99.90;;;;;;4229481;28;20107;-85
2022/08/19 01:18:57;;;;;;;8.65;4.35;;;16.00;99.90;;;;;;4230751;28;20039;-85
2022/08/19 01:21:05;;;;;;;6.55;4.20;;;16.00;99.90;;;;;;4263419;27;20083;-85
2022/08/19 01:23:06;;;;;;;9.77;4.82;;;16.00;99.90;;;;;;4230908;28;20236;-85
2022/08/19 01:25:07;;;;;;;7.35;4.07;;;15.90;99.90;;;;;;4246980;28;20051;-85
2022/08/19 01:27:08;;;;;;;7.50;4.72;;;15.90;99.90;;;;;;4231204;28;20072;-85
2022/08/19 01:29:10;;;;;;;5.85;4.13;;;15.90;99.90;;;;;;4231967;28;20139;-85
2022/08/19 01:31:16;;;;;;;6.93;4.35;;;16.00;99.90;;;;;;4266547;27;20038;-85
2022/08/19 01:33:19;;;;;;;10.35;4.50;;;15.90;99.90;;;;;;4249478;27;20107;-85
2022/08/19 01:35:23;;;;;;;7.88;4.40;;;16.00;99.90;;;;;;4233575;28;20066;-85
2022/08/19 01:37:25;;;;;;;7.55;3.45;;;16.00;99.90;;;;;;4267185;27;20057;-84
2022/08/19 01:39:25;;;;;;;7.35;4.63;;;16.00;99.90;;;;;;4233742;28;20093;-85
2022/08/19 01:41:26;;;;;;;8.70;4.30;;;16.00;99.90;;;;;;4227629;28;20424;-85
2022/08/19 01:43:27;;;;;;;6.55;4.15;;;16.00;99.90;;;;;;4200318;28;20041;-85
2022/08/19 01:45:30;;;;;;;10.20;4.47;;;16.00;99.90;;;;;;4215404;28;20101;-85
2022/08/19 01:47:32;;;;;;;7.03;4.00;;;16.00;99.90;;;;;;4199823;28;20045;-85
2022/08/19 01:49:32;;;;;;;7.40;4.45;;;16.00;99.90;;;;;;4200655;28;20095;-85
2022/08/19 01:51:33;;;;;;;6.40;4.20;;;16.00;99.90;;;;;;4214858;28;20055;-85
2022/08/19 01:53:35;;;;;;;8.18;4.75;;;16.00;99.90;;;;;;4215561;28;20546;-85
2022/08/19 01:55:39;;;;;;;10.10;3.72;;;15.90;99.90;;;;;;4216801;28;20048;-85
2022/08/19 01:57:42;;;;;;;9.60;4.55;;;15.90;99.90;;;;;;4216824;28;20571;-85
2022/08/19 01:59:44;;;;;;;5.45;3.88;;;15.90;99.90;;;;;;4216360;28;20377;-85
2022/08/19 02:01:45;;;;;;;5.70;3.83;;;15.90;99.90;;;;;;4215676;28;20080;-85
2022/08/19 02:03:46;;;;;;;7.18;4.20;;;15.80;99.90;;;;;;4216327;28;20044;-85
2022/08/19 02:05:49;;;;;;;5.30;4.05;;;15.80;99.90;;;;;;4198174;28;20048;-84
2022/08/19 02:07:50;;;;;;;10.90;4.72;;;15.80;99.90;;;;;;4232086;28;20047;-85
2022/08/19 02:09:51;;;;;;;7.88;4.50;;;15.80;99.90;;;;;;4198122;28;20040;-85
2022/08/19 02:11:53;;;;;;;6.40;3.78;;;15.80;99.90;;;;;;4216320;28;20036;-85
2022/08/19 02:13:55;;;;;;;9.57;4.47;;;15.80;99.90;;;;;;4215693;28;20070;-85
2022/08/19 02:15:56;;;;;;;8.13;4.53;;;15.80;99.90;;;;;;4216080;28;20051;-85
2022/08/19 02:17:57;;;;;;;9.25;4.97;;;15.80;99.90;;;;;;4198344;28;20497;-85
2022/08/19 02:19:58;;;;;;;8.88;4.55;;;15.80;99.90;;;;;;4216384;28;20496;-85
2022/08/19 02:22:03;;;;;;;9.02;4.90;;;15.80;99.90;;;;;;4198199;28;20056;-84
2022/08/19 02:24:04;;;;;;;10.43;4.93;;;15.90;99.90;;;;;;4215986;28;20036;-84
2022/08/19 02:26:06;;;;;;;10.18;5.20;;;15.80;99.90;;;;;;4216084;28;20115;-83
2022/08/19 02:28:07;;;;;;;10.13;5.35;;;15.90;99.90;;;;;;4197988;28;20051;-84
2022/08/19 02:30:12;;;;;;;13.02;5.30;;;15.90;99.90;;;;;;4231968;28;20043;-83
2022/08/19 02:32:13;;;;;;;8.37;4.90;;;15.80;99.90;;;;;;4216153;28;20058;-84
2022/08/19 02:34:15;;;;;;;11.02;4.88;;;15.80;99.90;;;;;;4197556;28;20241;-84
2022/08/19 02:36:17;;;;;;;8.85;4.78;;;15.80;99.90;;;;;;4216733;28;20040;-84
2022/08/19 02:38:27;;;;;;;9.43;5.03;;;15.80;99.90;;;;;;4181947;28;20049;-83
2022/08/19 02:40:33;;;;;;;13.63;5.90;;;15.80;99.90;;;;;;4216064;28;20046;-84
2022/08/19 02:42:34;;;;;;;11.07;6.30;;;15.80;99.90;;;;;;4231475;28;20111;-84
2022/08/19 02:44:36;;;;;;;11.40;5.60;;;15.70;99.90;;;;;;4198824;28;20052;-84
2022/08/19 02:46:37;;;;;;;9.85;5.30;;;15.70;99.90;;;;;;4232492;28;20040;-84
2022/08/19 02:48:38;;;;;;;11.70;6.13;;;15.70;99.90;;;;;;4232897;28;20059;-84
2022/08/19 02:50:40;;;;;;;10.93;6.25;;;15.70;99.90;;;;;;4248110;27;20104;-84
2022/08/19 02:52:40;;;;;;;12.77;6.47;;;15.40;99.90;;;;;;4214143;28;20044;-84
2022/08/19 02:54:42;;;;;;;12.90;5.38;;;15.70;99.90;;;;;;4214157;28;20420;-84
2022/08/19 02:56:44;;;;;;;14.10;5.88;;;15.70;99.90;;;;;;4215653;28;20048;-84
2022/08/19 02:58:45;;;;;;;13.13;6.07;;;15.60;99.90;;;;;;4197463;28;20053;-84
2022/08/19 03:00:50;;;;;;;11.82;6.03;;;15.60;99.90;;;;;;4214888;28;20102;-84
2022/08/19 03:02:51;;;;;;;10.73;6.07;;;15.60;99.90;;;;;;4214797;28;20059;-84
2022/08/19 03:04:51;;;;;;;9.75;5.80;;;15.60;99.90;;;;;;4215518;28;20040;-84
2022/08/19 03:06:52;;;;;;;12.30;5.93;;;15.60;99.90;;;;;;4213876;28;20085;-84
2022/08/19 03:08:54;;;;;;;11.88;6.22;;;15.60;99.90;;;;;;4247788;27;20469;-84
2022/08/19 03:10:55;;;;;;;12.13;5.22;;;15.60;99.90;;;;;;4196518;28;20052;-84
2022/08/19 03:12:55;;;;;;;9.35;5.57;;;15.60;99.90;;;;;;4215745;28;20040;-84
2022/08/19 03:14:57;;;;;;;12.05;6.22;;;15.60;99.90;;;;;;4213898;28;20435;-84
2022/08/19 03:16:59;;;;;;;9.77;6.05;;;15.60;99.90;;;;;;4215489;28;20094;-84
2022/08/19 03:19:01;;;;;;;12.80;6.00;;;15.60;99.90;;;;;;4213773;28;20493;-84
2022/08/19 03:21:03;;;;;;;16.83;6.05;;;15.60;99.90;;;;;;4213706;28;20046;-84
2022/08/19 03:23:04;;;;;;;9.98;6.55;;;15.60;99.90;;;;;;4247497;27;20122;-84
2022/08/19 03:25:05;;;;;;;12.45;6.25;;;15.60;99.90;;;;;;4215084;28;20452;-84
2022/08/19 03:27:06;;;;;;;8.57;5.57;;;15.50;99.90;;;;;;4215417;28;20047;-83
2022/08/19 03:29:08;;;;;;;9.27;5.85;;;15.60;99.90;;;;;;4214853;28;20051;-84
2022/08/19 03:31:13;;;;;;;11.95;6.50;;;15.60;99.90;;;;;;4214218;28;20559;-84
2022/08/19 03:33:14;;;;;;;13.23;6.40;;;15.60;99.90;;;;;;4214644;28;20044;-83
2022/08/19 03:35:15;;;;;;;9.75;5.43;;;15.60;99.90;;;;;;4214630;28;20071;-83
2022/08/19 03:37:16;;;;;;;11.43;6.40;;;15.60;99.90;;;;;;4214396;28;20047;-84
2022/08/19 03:39:18;;;;;;;9.75;6.07;;;15.60;99.90;;;;;;4213711;28;20404;-83
2022/08/19 03:41:21;;;;;;;9.40;6.05;;;15.60;99.90;;;;;;4196509;28;20578;-84
2022/08/19 03:43:22;;;;;;;10.02;5.45;;;15.60;99.90;;;;;;4230606;28;20047;-84
2022/08/19 03:45:23;;;;;;;13.05;6.57;;;15.50;99.90;;;;;;4213641;28;20055;-84
2022/08/19 03:47:25;;;;;;;9.30;5.20;;;15.50;99.90;;;;;;4214593;28;20123;-83
2022/08/19 03:49:28;;;;;;;11.13;5.90;;;15.50;99.90;;;;;;4213468;28;20165;-83
2022/08/19 03:51:35;;;;;;;9.00;5.63;;;15.50;99.90;;;;;;4228538;28;20102;-84
2022/08/19 03:53:36;;;;;;;8.88;5.07;;;15.50;99.90;;;;;;4196525;28;20461;-83
2022/08/19 03:55:41;;;;;;;8.90;5.20;;;15.50;99.90;;;;;;4230118;28;20123;-84
2022/08/19 03:57:44;;;;;;;10.73;5.18;;;15.40;99.90;;;;;;4230850;28;20508;-84
2022/08/19 03:59:45;;;;;;;9.43;5.60;;;15.40;99.90;;;;;;4230839;28;20593;-83
2022/08/19 04:01:47;;;;;;;10.00;6.15;;;15.40;99.90;;;;;;4229536;28;20039;-84
2022/08/19 04:03:48;;;;;;;8.52;5.10;;;15.40;99.90;;;;;;4212489;28;20044;-84
2022/08/19 04:05:50;;;;;;;11.02;5.45;;;15.40;99.90;;;;;;4230857;28;20051;-84
2022/08/19 04:07:50;;;;;;;10.43;5.20;;;15.40;99.90;;;;;;4230141;28;20052;-84
2022/08/19 04:09:53;;;;;;;8.32;5.20;;;15.40;99.90;;;;;;4212755;28;20432;-84
2022/08/19 04:11:56;;;;;;;9.38;5.28;;;15.30;99.90;;;;;;4224642;28;20059;-84
2022/08/19 04:13:57;;;;;;;10.70;5.15;;;15.30;99.90;;;;;;4189283;28;20429;-84
2022/08/19 04:15:58;;;;;;;8.27;4.53;;;15.30;99.90;;;;;;4230775;28;20130;-84
2022/08/19 04:17:58;;;;;;;9.80;5.32;;;15.30;99.90;;;;;;4246796;27;20126;-83
2022/08/19 04:19:59;;;;;;;9.52;5.80;;;15.30;99.90;;;;;;4231328;28;20055;-84
2022/08/19 04:22:01;;;;;;;8.32;4.55;;;15.30;99.90;;;;;;4231162;28;20040;-84
2022/08/19 04:24:02;;;;;;;7.13;4.28;;;15.20;99.90;;;;;;4246796;28;20054;-84
2022/08/19 04:26:03;;;;;;;8.10;4.78;;;15.30;99.90;;;;;;4230254;28;20046;-84
2022/08/19 04:28:04;;;;;;;8.88;4.90;;;15.20;99.90;;;;;;4246551;28;20586;-84
2022/08/19 04:30:05;;;;;;;9.68;5.10;;;15.30;99.90;;;;;;4231194;28;20055;-84
2022/08/19 04:32:06;;;;;;;8.30;4.50;;;15.30;99.90;;;;;;4212754;28;20052;-84
2022/08/19 04:34:12;;;;;;;9.48;4.82;;;15.30;99.90;;;;;;4246748;28;20440;-84
2022/08/19 04:36:20;;;;;;;10.48;5.45;;;15.30;99.90;;;;;;4231301;28;20480;-84
2022/08/19 04:38:24;;;;;;;9.85;5.35;;;15.30;99.90;;;;;;4212695;28;20075;-84
2022/08/19 04:42:44;;;;;;;10.85;5.00;;;15.30;99.90;;;;;;4230948;28;20102;-84
2022/08/19 04:44:45;;;;;;;11.68;5.25;;;15.30;99.90;;;;;;4212737;28;20152;-84
2022/08/19 04:46:47;;;;;;;11.52;5.30;;;15.30;99.90;;;;;;4231575;28;20548;-84
2022/08/19 04:48:48;;;;;;;13.20;5.00;;;15.30;99.90;;;;;;4213257;28;20150;-84
2022/08/19 04:50:49;;;;;;;10.40;5.03;;;15.40;99.90;;;;;;4231651;28;20059;-84
2022/08/19 04:52:52;;;;;;;14.57;5.20;;;15.40;99.90;;;;;;4212500;28;20090;-84
2022/08/19 04:54:55;;;;;;;11.07;5.70;;;15.40;99.90;;;;;;4246235;28;20610;-84
2022/08/19 04:56:56;;;;;;;11.55;5.47;;;15.40;99.90;;;;;;4230896;28;20040;-84
2022/08/19 04:58:57;;;;;;;10.40;5.57;;;15.40;99.90;;;;;;4246311;28;20047;-84
2022/08/19 05:00:59;;;;;;;10.73;6.22;;;15.40;99.90;;;;;;4213357;28;20499;-83
2022/08/19 05:03:02;;;;;;;10.23;5.32;;;15.40;99.90;;;;;;4232814;28;20039;-84
2022/08/19 05:05:03;;;;;;;10.10;5.38;;;15.40;99.90;;;;;;4216055;28;20412;-84
2022/08/19 05:07:04;;;;;;;11.48;5.55;;;15.40;99.90;;;;;;4246830;27;20039;-84
2022/08/19 05:09:06;;;;;;;10.77;4.90;;;15.40;99.90;;;;;;4233279;28;20506;-84
2022/08/19 05:11:15;;;;;;;11.00;5.10;;;15.40;99.90;;;;;;4267459;27;20039;-84
2022/08/19 05:13:18;;;;;;;13.27;4.88;;;15.50;99.90;;;;;;4266673;27;20133;-84
2022/08/19 05:15:19;;;;;;;12.30;5.72;;;15.50;99.90;;;;;;4232930;28;20510;-83
2022/08/19 05:17:19;;;;;;;9.23;5.03;;;15.50;99.90;;;;;;4216132;28;20242;-83
2022/08/19 05:24:02;;;;;;;8.55;4.72;;;15.60;99.90;;;;;;4251333;27;20047;-84
2022/08/19 05:26:03;;;;;;;9.15;5.10;;;15.70;99.90;;;;;;4251005;27;20050;-84
2022/08/19 05:28:04;;;;;;;13.65;5.78;;;15.70;99.90;;;;;;4266897;27;20414;-84
2022/08/19 05:30:06;;;;;;;12.70;5.03;;;15.80;99.90;;;;;;4250816;27;20046;-84
2022/08/19 05:32:10;;;;;;;8.77;4.85;;;15.80;99.90;;;;;;4232511;28;20039;-84
2022/08/19 05:34:11;;;;;;;17.95;6.40;;;15.90;99.90;;;;;;4266172;27;20043;-84
2022/08/19 05:36:13;;;;;;;12.05;5.60;;;15.90;99.90;;;;;;4250294;27;20047;-84
2022/08/19 05:38:13;;;;;;;12.40;5.70;;;16.00;99.90;;;;;;4232450;28;20055;-83
2022/08/19 05:40:14;;;;;;;12.30;5.53;;;16.00;99.90;;;;;;4232348;28;20051;-84
2022/08/19 05:42:16;;;;;;;8.73;5.13;;;16.10;99.90;;;;;;4234793;27;20032;-84
2022/08/19 05:44:17;;;;;;;9.73;5.40;;;16.20;99.90;;;;;;4198446;28;20480;-84
2022/08/19 05:46:19;;;;;;;9.35;5.20;;;16.20;99.90;;;;;;4216089;28;20074;-84
2022/08/19 05:48:20;;;;;;;10.57;5.90;;;16.30;99.90;;;;;;4216821;28;20476;-87
2022/08/19 05:50:22;;;;;;;9.65;5.18;;;16.30;99.90;;;;;;4232902;27;20077;-86
2022/08/19 05:52:22;;;;;;;9.10;5.22;;;16.40;99.90;;;;;;4200589;28;20037;-86
2022/08/19 05:54:24;;;;;;;11.18;5.60;;;16.50;99.90;;;;;;4216198;28;20161;-86
2022/08/19 05:56:24;;;;;;;12.45;5.22;;;16.30;99.90;;;;;;4231474;28;20040;-86
2022/08/19 05:58:26;;;;;;;13.35;5.45;;;16.70;99.90;;;;;;4214731;28;20131;-86
2022/08/19 06:00:26;;;;;;;9.40;5.75;;;16.70;99.90;;;;;;4231558;28;20044;-86
2022/08/19 06:02:30;;;;;;;13.75;6.65;;;16.80;99.90;;;;;;4181012;28;20052;-86
2022/08/19 06:04:31;;;;;;;12.40;5.53;;;16.90;99.90;;;;;;4197976;28;20041;-86
2022/08/19 06:06:33;;;;;;;9.52;5.47;;;16.90;99.90;;;;;;4232304;27;20179;-86
2022/08/19 06:08:37;;;;;;;10.75;5.78;;;17.00;99.90;;;;;;4246368;27;20055;-86
2022/08/19 06:10:37;;;;;;;12.18;5.95;;;17.10;99.90;;;;;;4232463;28;20035;-86
2022/08/19 06:12:38;;;;;;;13.73;6.55;;;17.20;99.90;;;;;;4214256;28;20051;-86
2022/08/19 06:14:40;;;;;;;11.02;6.05;;;17.30;99.90;;;;;;4247375;27;20517;-86
2022/08/19 06:16:44;;;;;;;10.63;6.75;;;17.40;99.90;;;;;;4232544;28;20046;-86
2022/08/19 06:18:48;;;;;;;13.52;5.60;;;17.50;99.90;;;;;;4232548;28;20511;-85
2022/08/19 06:20:48;;;;;;;14.93;6.38;;;17.60;99.90;;;;;;4232251;28;20040;-86
2022/08/19 06:22:51;;;;;;;8.70;5.53;;;17.70;99.90;;;;;;4231691;28;20043;-86
2022/08/19 06:24:53;;;;;;;12.75;5.50;;;17.70;99.90;;;;;;4247918;27;20043;-86
2022/08/19 06:26:57;;;;;;;8.98;5.10;;;17.80;99.90;;;;;;4213814;28;20137;-86
2022/08/19 06:28:58;;;;;;;11.25;5.15;;;17.90;99.90;;;;;;4194123;28;20052;-85
2022/08/19 06:31:06;;;;;;;11.10;5.18;;;18.00;99.90;;;;;;4212658;28;20056;-86
2022/08/19 06:33:06;;;;;;;9.45;4.65;;;18.10;99.90;;;;;;4232850;28;20066;-86
2022/08/19 06:35:08;;;;;;;7.45;4.38;;;18.20;99.90;;;;;;4247443;27;20179;-86
2022/08/19 06:37:08;;;;;;;10.57;4.75;;;18.30;99.90;;;;;;4232249;28;20498;-86
2022/08/19 06:39:12;;;;;;;8.45;4.80;;;18.30;99.90;;;;;;4231580;28;20176;-86
2022/08/19 06:41:13;;;;;;;6.72;4.47;;;18.40;99.90;;;;;;4232122;28;20039;-86
2022/08/19 06:43:15;;;;;;;8.13;4.85;;;18.50;99.90;;;;;;4248869;27;20049;-86
2022/08/19 06:45:17;;;;;;;9.20;5.65;;;18.50;99.90;;;;;;4213498;28;20043;-86
2022/08/19 06:47:20;;;;;;;11.18;5.50;;;18.60;99.90;;;;;;4231702;28;20027;-86
2022/08/19 06:49:30;;;;;;;10.52;5.47;;;18.70;99.90;;;;;;4225623;28;20123;-85
2022/08/19 06:51:34;;;;;;;10.23;5.03;;;18.80;99.90;;;;;;4213581;28;20059;-86
2022/08/19 06:53:34;;;;;;;7.93;5.07;;;18.80;99.90;;;;;;4230783;28;20036;-86
2022/08/19 06:55:36;;;;;;;8.00;4.43;;;18.90;99.90;;;;;;4196883;28;20048;-86
2022/08/19 06:57:37;;;;;;;10.05;5.18;;;19.00;99.90;;;;;;4231199;28;20071;-85
2022/08/19 06:59:38;;;;;;;8.27;4.82;;;19.10;99.90;;;;;;4231888;28;20540;-85
2022/08/19 07:01:41;;;;;;;6.80;4.53;;;19.10;99.90;;;;;;4231985;28;20042;-85
2022/08/19 07:03:42;;;;;;;9.32;4.55;;;19.20;99.90;;;;;;4197017;28;20048;-85
2022/08/19 07:05:43;;;;;;;10.02;5.00;;;19.30;99.90;;;;;;4248402;27;20075;-85
2022/08/19 07:07:43;;;;;;;9.32;4.38;;;19.40;99.90;;;;;;4191096;28;20057;-85
2022/08/19 07:09:45;;;;;;;10.73;4.95;;;19.50;99.90;;;;;;4196709;28;20519;-85
2022/08/19 07:11:52;;;;;;;13.70;5.25;;;19.60;99.90;;;;;;4214564;28;20091;-85
2022/08/19 07:13:54;;;;;;;10.07;4.38;;;19.70;99.90;;;;;;4196665;28;20127;-85
2022/08/19 07:15:55;;;;;;;8.65;4.35;;;19.60;99.90;;;;;;4214466;28;20040;-85
2022/08/19 07:17:56;;;;;;;8.55;4.13;;;19.90;99.90;;;;;;4216364;28;20047;-85
2022/08/19 07:19:58;;;;;;;11.27;4.60;;;20.00;99.90;;;;;;4230177;28;20047;-85
2022/08/19 07:22:04;;;;;;;8.10;4.65;;;20.00;99.90;;;;;;4214788;28;20040;-86
2022/08/19 07:24:05;;;;;;;9.82;4.78;;;20.10;99.90;;;;;;4229415;27;20045;-85
2022/08/19 07:26:13;;;;;;;8.68;4.97;;;20.10;99.90;;;;;;4264403;27;20430;-85
2022/08/19 07:28:18;;;;;;;7.07;4.47;;;20.20;99.90;;;;;;4248569;27;20035;-85
2022/08/19 07:30:19;;;;;;;10.55;4.63;;;20.20;99.90;;;;;;4212845;28;20048;-85
2022/08/19 07:32:19;;;;;;;7.43;4.63;;;20.30;99.90;;;;;;4230285;28;20438;-85
2022/08/19 07:34:20;;;;;;;10.88;5.53;;;20.30;99.90;;;;;;4211228;28;20040;-86
2022/08/19 07:36:31;;;;;;;9.02;4.93;;;20.40;99.90;;;;;;4230146;28;20403;-86
2022/08/19 07:38:35;;;;;;;9.70;4.95;;;20.60;99.90;;;;;;4231011;28;20036;-84
2022/08/19 07:40:37;;;;;;;14.98;5.80;;;20.70;99.90;;;;;;4229844;28;20466;-85
2022/08/19 07:42:38;;;;;;;7.80;4.80;;;20.80;99.90;;;;;;4212776;28;20097;-87
2022/08/19 07:44:40;;;;;;;9.43;4.70;;;21.10;99.90;;;;;;4230259;28;20442;-85
2022/08/19 07:46:47;;;;;;;8.05;4.25;;;20.90;99.90;;;;;;4195737;28;20054;-85
2022/08/19 07:48:50;;;;;;;7.45;4.10;;;21.10;99.90;;;;;;4213421;28;20048;-84
2022/08/19 07:50:55;;;;;;;9.85;4.97;;;21.30;99.90;;;;;;4231134;28;20067;-85
2022/08/19 07:52:56;;;;;;;8.45;4.95;;;21.50;99.90;;;;;;4217185;28;20052;-84
2022/08/19 07:54:59;;;;;;;9.00;5.47;;;21.60;99.90;;;;;;4213728;28;20059;-86
2022/08/19 07:57:00;;;;;;;8.45;5.18;;;21.70;99.90;;;;;;4214105;28;20040;-84
2022/08/19 07:59:04;;;;;;;9.90;4.55;;;21.80;99.90;;;;;;4235136;27;20075;-86
2022/08/19 08:01:07;;;;;;;7.03;4.65;;;21.80;99.90;;;;;;4215305;28;20040;-86
2022/08/19 08:03:12;;;;;;;11.75;5.70;;;21.90;99.90;;;;;;4181046;28;20571;-86
2022/08/19 08:09:52;;;;;;;8.90;4.68;;;22.40;99.90;;;;;;4218322;28;20535;-85
2022/08/19 08:12:00;;;;;;;12.50;6.18;;;22.60;99.90;;;;;;4213876;28;20121;-85
2022/08/19 08:14:01;;;;;;;8.88;5.15;;;22.70;99.90;;;;;;4231795;28;20040;-85
2022/08/19 08:16:03;;;;;;;10.98;5.20;;;22.80;99.90;;;;;;4231892;28;20047;-85
2022/08/19 08:18:04;;;;;;;9.13;5.90;;;22.90;99.90;;;;;;4231601;28;20043;-86
2022/08/19 08:20:08;;;;;;;7.63;4.82;;;22.90;99.50;;;;;;4197153;28;20048;-85
2022/08/19 08:23:22;;;;;;;7.82;5.40;;;23.00;99.40;;;;;;4226449;28;20050;-84
2022/08/19 08:24:35;;;;;;;8.60;4.28;;;23.30;99.30;;;;;;4212578;28;20403;-84
2022/08/19 08:26:36;;;;;;;7.95;4.75;;;23.60;99.10;;;;;;4214479;28;20065;-84
2022/08/19 08:28:37;;;;;;;9.48;5.63;;;23.80;98.70;;;;;;4214129;28;20048;-84
2022/08/19 08:30:41;;;;;;;5.60;3.28;;;23.90;98.10;;;;;;4229439;28;20043;-85
2022/08/19 08:32:42;;;;;;;5.53;3.88;;;24.00;97.60;;;;;;4213749;28;20051;-85
2022/08/19 08:34:43;;;;;;;4.93;3.22;;;24.20;96.90;;;;;;4196081;28;20060;-85
2022/08/19 08:36:45;;;;;;;4.38;3.13;;;24.10;96.70;;;;;;4217218;28;20040;-85
2022/08/19 08:38:46;;;;;;;8.80;3.90;;;24.30;96.70;;;;;;4247321;27;20166;-85
2022/08/19 08:40:53;;;;;;;6.25;3.75;;;24.50;96.10;;;;;;4238643;27;20491;-85
2022/08/19 08:43:08;;;;;;;5.93;3.45;;;24.60;95.10;;;;;;4234248;28;20039;-85
2022/08/19 08:45:16;;;;;;;6.20;2.83;;;24.80;94.70;;;;;;4215889;28;20060;-85
2022/08/19 08:47:19;;;;;;;6.22;4.40;;;24.90;94.50;;;;;;4233955;28;20078;-85
2022/08/19 08:49:29;;;;;;;5.63;3.60;;;25.00;94.00;;;;;;4233505;28;20081;-85
2022/08/19 08:51:42;;;;;;;7.60;4.13;;;24.80;93.40;;;;;;4233874;28;20048;-85
2022/08/19 08:53:44;;;;;;;5.88;3.75;;;24.80;93.70;;;;;;4232587;28;20044;-85
2022/08/19 08:55:47;;;;;;;9.25;4.13;;;25.00;93.90;;;;;;4202265;28;20156;-85
2022/08/19 08:57:48;;;;;;;5.75;4.00;;;25.00;93.60;;;;;;4216912;28;20055;-85
2022/08/19 08:59:53;;;;;;;6.22;4.32;;;25.10;93.70;;;;;;4198610;28;20093;-85
2022/08/19 09:01:54;;;;;;;10.45;4.28;;;25.40;93.90;;;;;;4217520;28;20040;-85
2022/08/19 09:03:55;;;;;;;9.32;5.05;;;25.60;93.80;;;;;;4217079;28;20036;-86
2022/08/19 09:06:03;;;;;;;6.10;4.38;;;25.90;93.50;;;;;;4217276;28;20055;-84
2022/08/19 09:08:45;;;;;;;9.10;4.05;;;26.10;92.90;;;;;;4199107;28;20048;-84
2022/08/19 09:10:57;;;;;;;6.70;4.72;;;26.40;92.70;;;;;;4218405;28;20044;-83
2022/08/19 09:13:12;;;;;;;6.38;4.57;;;26.50;91.60;;;;;;4217053;28;20044;-85
2022/08/19 09:15:16;;;;;;;6.30;4.70;;;26.60;91.90;;;;;;4216890;28;20488;-85
2022/08/19 09:17:18;;;;;;;7.78;4.85;;;26.90;92.10;;;;;;4205957;28;20435;-85
2022/08/19 09:19:19;;;;;;;6.95;4.35;;;27.10;91.80;;;;;;4358625;22;20053;-83
2022/08/19 09:21:24;;;;;;;6.78;4.53;;;27.30;91.20;;;;;;4213430;28;20099;-83
2022/08/19 09:23:25;;;;;;;6.53;5.00;;;26.90;90.30;;;;;;4198896;28;20508;-83
2022/08/19 09:25:26;;;;;;;7.30;4.00;;;27.30;90.00;;;;;;4216081;28;20078;-83
2022/08/19 09:27:29;;;;;;;7.07;4.55;;;27.30;90.00;;;;;;4216354;28;20049;-83
2022/08/19 09:29:30;;;;;;;7.00;5.28;;;27.30;88.20;;;;;;4201323;28;20502;-84
2022/08/19 09:31:32;;;;;;;7.93;4.38;;;27.40;87.80;;;;;;4216060;28;20044;-83
2022/08/19 09:33:33;;;;;;;7.05;5.18;;;27.30;87.40;;;;;;4216451;28;20044;-83
2022/08/19 09:35:35;;;;;;;9.13;4.75;;;27.50;87.40;;;;;;4219416;28;20083;-83
2022/08/19 09:37:36;;;;;;;8.65;4.65;;;27.80;87.10;;;;;;4218691;28;20567;-83
2022/08/19 09:39:38;;;;;;;6.28;4.10;;;27.80;85.60;;;;;;4222568;28;20044;-83
2022/08/19 09:41:39;;;;;;;7.07;4.90;;;27.90;85.20;;;;;;4219538;28;20131;-82
2022/08/19 09:43:41;;;;;;;6.00;4.00;;;27.90;84.10;;;;;;4218629;28;20044;-83
2022/08/19 09:45:42;;;;;;;6.32;4.53;;;28.10;83.50;;;;;;4217979;28;20040;-83
2022/08/19 09:47:44;;;;;;;5.25;4.10;;;28.30;82.90;;;;;;4209519;28;20112;-83
2022/08/19 09:49:48;;;;;;;7.15;4.32;;;28.80;82.90;;;;;;4210620;28;20410;-84
2022/08/19 09:51:51;;;;;;;5.20;3.47;;;29.00;81.70;;;;;;4209621;28;20051;-84
2022/08/19 09:53:56;;;;;;;5.32;3.63;;;29.20;81.60;;;;;;4201326;28;20040;-83
2022/08/19 09:55:57;;;;;;;7.25;4.00;;;29.60;81.30;;;;;;4200325;28;20051;-84
2022/08/19 09:58:02;;;;;;;6.95;3.55;;;29.90;79.60;;;;;;4202278;28;20561;-84
2022/08/19 10:00:08;;;;;;;6.63;4.70;;;30.00;78.50;;;;;;4202102;28;20493;-84
2022/08/19 10:02:09;;;;;;;6.68;4.32;;;30.00;76.40;;;;;;4201235;28;20048;-84
2022/08/19 10:04:11;;;;;;;5.88;4.05;;;29.90;77.10;;;;;;4200371;28;20466;-84
2022/08/19 10:06:12;;;;;;;6.20;4.55;;;29.90;77.00;;;;;;4202944;28;20040;-85
2022/08/19 10:08:13;;;;;;;6.82;4.45;;;29.90;77.30;;;;;;4203720;28;20093;-84
2022/08/19 10:10:15;;;;;;;5.60;3.80;;;29.90;75.30;;;;;;4204070;28;20124;-84
2022/08/19 10:12:16;;;;;;;5.63;3.83;;;30.10;75.60;;;;;;4207824;28;20070;-84
2022/08/19 10:14:22;;;;;;;5.30;3.20;;;30.50;74.50;;;;;;4210238;28;20053;-84
2022/08/19 10:16:24;;;;;;;7.78;5.45;;;30.90;74.60;;;;;;4222057;28;20059;-84
2022/08/19 10:18:25;;;;;;;6.93;4.65;;;31.10;73.60;;;;;;4221357;28;20044;-84
2022/08/19 10:20:29;;;;;;;6.10;4.57;;;31.00;72.30;;;;;;4221970;28;20484;-84
2022/08/19 10:22:30;;;;;;;7.90;4.35;;;30.80;71.20;;;;;;4218876;28;20070;-84
2022/08/19 10:24:31;;;;;;;11.13;4.05;;;30.80;72.10;;;;;;4218617;28;20384;-84
2022/08/19 10:26:41;;;;;;;8.00;4.82;;;31.20;72.80;;;;;;4220112;28;20052;-83
2022/08/19 10:28:43;;;;;;;6.65;5.10;;;31.60;71.10;;;;;;4220984;28;20046;-84
2022/08/19 10:30:44;;;;;;;9.57;5.20;;;31.90;71.20;;;;;;4221304;28;20044;-84
2022/08/19 10:32:45;;;;;;;7.55;5.38;;;32.20;70.60;;;;;;4216425;28;20048;-84
2022/08/19 10:34:48;;;;;;;5.22;4.00;;;32.00;68.30;;;;;;4223662;28;20118;-82
2022/08/19 10:36:50;;;;;;;9.20;4.68;;;31.90;68.00;;;;;;4216710;28;20040;-83
2022/08/19 10:38:56;;;;;;;5.93;3.58;;;31.50;67.20;;;;;;4216339;28;20472;-82
2022/08/19 10:40:56;;;;;;;6.97;5.30;;;31.50;67.90;;;;;;4217407;28;20866;-82
2022/08/19 10:42:57;;;;;;;7.47;4.68;;;31.60;67.60;;;;;;4219742;28;20051;-82
2022/08/19 10:44:58;;;;;;;9.25;4.95;;;31.80;67.50;;;;;;4219375;28;20047;-82
2022/08/19 10:46:59;;;;;;;8.45;4.82;;;32.00;66.80;;;;;;4216581;28;20488;-82